aviador You're here:

KORE Decoded Metar

ORANGE in MA, USA
Report Time2018-07-19 18:52:00
UTC Time2018-07-19 19:12:37
Flight Rules vfr VFR
Wind260° at 08 kt
W.Decomp.*RWY 32: 5.7 kt HW 5.7 kt LCW
RWY 19: 0.7 kt HW 8.0 kt RCW
W.Rank260° ranks 17
Current wind is above 260° avg. (7.5)
Visibility9999 m
Phenomena:N/A
Clouds:N/A
Expected CloudBase > 7,200 ft AGL from Temp-Dew spread
CeilingNone
Temp27°C (ISA +13)
Dew Point09°C (32% RH)
Heat Index26.5°C
AAT23.9°C
QNH1019 hPa
Density Alt2,001 ft
Elevation538 ft
Report Wrong Elevation
Raw Report
KORE 191852Z AUTO 26008KT 10SM CLR 27/09 A3010 RMK AO2 SLP191
T02670089=

Extra information for KORE:More info

Metar Taf Metar & Taf Last 4 Metars F.Rules Stats Wind Profile Meteogram Temp Stats Airport Information Weather charts Add Link Nearby VenuesMetar ALERT Operation Metar Decoded Social comments

AIRNAV info for KORE